Time;durP1;ratioP1;P1;durP2;ratioP2;P2;SDS_P1;SDS_P2;PMS_P1;PMS_P2;Temp;Humidity;BMP_temperature;BMP_pressure;BME280_temperature;BME280_humidity;BME280_pressure;Samples;Min_cycle;Max_cycle;Signal;HPM_P1;HPM_P2
2023/03/03 00:00:14;;;;;;;8.90;4.00;;;5.20;99.90;;;;;;5036470;28;20025;-40
2023/03/03 00:02:40;;;;;;;7.45;4.22;;;5.20;99.90;;;;;;5030029;28;20041;-50
2023/03/03 00:05:06;;;;;;;10.30;3.97;;;5.10;99.90;;;;;;5036822;28;20022;-50
2023/03/03 00:07:32;;;;;;;10.23;4.30;;;5.10;99.90;;;;;;5042151;28;20037;-50
2023/03/03 00:09:57;;;;;;;13.18;4.10;;;5.10;99.90;;;;;;5040009;28;20017;-43
2023/03/03 00:12:26;;;;;;;7.18;3.78;;;5.10;99.90;;;;;;5044789;28;20503;-50
2023/03/03 00:14:52;;;;;;;8.73;3.72;;;5.10;99.90;;;;;;5041083;28;20026;-43
2023/03/03 00:17:24;;;;;;;13.73;4.00;;;5.10;99.90;;;;;;5030504;28;20033;-51
2023/03/03 00:19:51;;;;;;;10.00;4.22;;;5.00;99.90;;;;;;5043371;28;20479;-40
2023/03/03 00:22:29;;;;;;;11.73;4.18;;;5.00;99.90;;;;;;5048725;28;20194;-40
2023/03/03 00:24:59;;;;;;;12.38;4.22;;;5.00;99.90;;;;;;5034922;28;20026;-47
2023/03/03 00:27:28;;;;;;;10.52;4.28;;;4.90;99.90;;;;;;5044162;28;20044;-42
2023/03/03 00:29:56;;;;;;;8.95;4.90;;;4.90;99.90;;;;;;5035842;28;20485;-44
2023/03/03 00:32:45;;;;;;;11.68;4.00;;;4.90;99.90;;;;;;5035291;28;20484;-49
2023/03/03 00:35:38;;;;;;;10.20;3.97;;;4.90;99.90;;;;;;5034147;28;20026;-40
2023/03/03 00:38:17;;;;;;;9.52;4.40;;;4.80;99.90;;;;;;5041181;28;20496;-50
2023/03/03 00:40:43;;;;;;;12.50;4.95;;;4.80;99.90;;;;;;5045919;28;20094;-42
2023/03/03 00:43:22;;;;;;;11.10;4.43;;;4.70;99.90;;;;;;5045355;28;20415;-44
2023/03/03 00:45:52;;;;;;;10.60;4.50;;;4.60;99.90;;;;;;5047140;28;20060;-51
2023/03/03 00:48:28;;;;;;;9.02;4.72;;;4.50;99.90;;;;;;5049062;28;20025;-51
2023/03/03 00:50:59;;;;;;;12.43;4.82;;;4.50;99.90;;;;;;5031328;28;20114;-42
2023/03/03 00:53:29;;;;;;;9.18;5.03;;;4.50;99.90;;;;;;5049703;28;20029;-47
2023/03/03 00:55:55;;;;;;;14.05;5.10;;;4.40;99.90;;;;;;5047502;28;20037;-48
2023/03/03 00:58:26;;;;;;;11.85;4.80;;;4.40;99.90;;;;;;5030844;28;20037;-44
2023/03/03 01:00:53;;;;;;;9.00;4.78;;;4.30;99.90;;;;;;5037038;28;20037;-43
2023/03/03 01:03:24;;;;;;;9.88;5.32;;;4.20;99.90;;;;;;5033501;28;20068;-45
2023/03/03 01:05:50;;;;;;;10.90;5.53;;;4.10;99.90;;;;;;5047468;28;20021;-48
2023/03/03 01:08:16;;;;;;;9.70;5.72;;;4.20;99.90;;;;;;5046680;28;20052;-49
2023/03/03 01:10:49;;;;;;;11.55;5.43;;;4.10;99.90;;;;;;5039814;28;20025;-45
2023/03/03 01:13:16;;;;;;;11.23;5.55;;;4.10;99.90;;;;;;5033200;28;20029;-42
2023/03/03 01:15:42;;;;;;;11.35;5.30;;;4.10;99.90;;;;;;5043106;28;20017;-44
2023/03/03 01:18:11;;;;;;;13.93;5.80;;;4.10;99.90;;;;;;5040458;28;20029;-41
2023/03/03 01:20:37;;;;;;;7.93;5.00;;;4.10;99.90;;;;;;5042293;28;20021;-41
2023/03/03 01:23:03;;;;;;;12.18;5.82;;;4.10;99.90;;;;;;5035111;28;20036;-42
2023/03/03 01:25:29;;;;;;;11.73;6.05;;;4.10;99.90;;;;;;5032966;28;20624;-42
2023/03/03 01:27:54;;;;;;;12.18;6.53;;;4.00;99.90;;;;;;5034907;28;20041;-56
2023/03/03 01:30:20;;;;;;;12.65;5.93;;;4.00;99.90;;;;;;5043087;28;20021;-43
2023/03/03 01:32:46;;;;;;;14.88;6.65;;;4.00;99.90;;;;;;5048392;28;20051;-45
2023/03/03 01:35:12;;;;;;;15.10;6.45;;;4.00;99.90;;;;;;5049414;28;20025;-51
2023/03/03 01:37:37;;;;;;;11.85;5.70;;;4.00;99.90;;;;;;5033706;28;20044;-46
2023/03/03 01:40:07;;;;;;;11.27;5.55;;;3.90;99.90;;;;;;5042204;28;20017;-50
2023/03/03 01:42:32;;;;;;;17.30;6.43;;;3.80;99.90;;;;;;5039732;28;20029;-46
2023/03/03 01:45:48;;;;;;;12.23;6.25;;;3.80;99.90;;;;;;5039021;28;20449;-41
2023/03/03 01:48:19;;;;;;;10.63;5.35;;;3.80;99.90;;;;;;5010919;28;20022;-50
2023/03/03 01:51:03;;;;;;;12.23;5.97;;;3.80;99.90;;;;;;5013384;28;20018;-44
2023/03/03 01:53:42;;;;;;;13.82;5.75;;;3.70;99.90;;;;;;5043115;28;20391;-45
2023/03/03 01:56:09;;;;;;;11.20;5.40;;;3.80;99.90;;;;;;5050801;28;20027;-41
2023/03/03 01:58:40;;;;;;;9.48;5.78;;;3.80;99.90;;;;;;5038781;28;20463;-46
2023/03/03 02:01:12;;;;;;;11.88;5.55;;;3.80;99.90;;;;;;5036657;28;20638;-50
2023/03/03 02:03:38;;;;;;;14.75;5.88;;;3.80;99.90;;;;;;5050607;28;20045;-49
2023/03/03 02:06:08;;;;;;;13.90;5.43;;;3.80;99.90;;;;;;5048484;28;20052;-41
2023/03/03 02:09:07;;;;;;;10.15;5.78;;;3.80;99.90;;;;;;5033567;28;20022;-56
2023/03/03 02:11:36;;;;;;;11.40;6.05;;;3.80;99.90;;;;;;5009467;28;20037;-51
2023/03/03 02:14:02;;;;;;;11.48;6.28;;;3.80;99.90;;;;;;5034839;28;20481;-45
2023/03/03 02:16:28;;;;;;;9.40;5.32;;;3.80;99.90;;;;;;5039325;28;20021;-55
2023/03/03 02:18:54;;;;;;;11.75;5.95;;;3.80;99.90;;;;;;5050274;28;20471;-44
2023/03/03 02:21:22;;;;;;;10.25;5.70;;;3.70;99.90;;;;;;5042158;28;20029;-43
2023/03/03 02:24:11;;;;;;;10.48;5.63;;;3.80;99.90;;;;;;5033766;28;20503;-44
2023/03/03 02:26:40;;;;;;;13.85;6.70;;;3.70;99.90;;;;;;5028768;28;20021;-48
2023/03/03 02:29:06;;;;;;;9.68;5.30;;;3.80;99.90;;;;;;5043531;28;20095;-51
2023/03/03 02:31:33;;;;;;;15.55;6.20;;;3.70;99.90;;;;;;5042674;28;20055;-47
2023/03/03 02:33:59;;;;;;;10.38;6.10;;;3.70;99.90;;;;;;5041181;28;20087;-48
2023/03/03 02:36:30;;;;;;;14.15;5.45;;;3.70;99.90;;;;;;5051333;28;20025;-43
2023/03/03 02:39:06;;;;;;;15.80;5.47;;;3.60;99.90;;;;;;5039825;28;20037;-43
2023/03/03 02:42:08;;;;;;;17.40;6.30;;;3.70;99.90;;;;;;5040594;28;20326;-45
2023/03/03 02:44:34;;;;;;;13.45;5.95;;;3.70;99.90;;;;;;5032819;28;20124;-44
2023/03/03 02:47:00;;;;;;;15.98;5.88;;;3.60;99.90;;;;;;5036398;28;20664;-44
2023/03/03 02:49:31;;;;;;;14.77;5.93;;;3.60;99.90;;;;;;5048285;28;20116;-41
2023/03/03 02:51:58;;;;;;;16.85;5.85;;;3.60;99.90;;;;;;5032828;28;20568;-40
2023/03/03 02:54:26;;;;;;;10.93;6.15;;;3.60;99.90;;;;;;5050050;28;20124;-46
2023/03/03 02:56:52;;;;;;;13.32;6.07;;;3.60;99.90;;;;;;5044880;28;20022;-42
2023/03/03 02:59:18;;;;;;;12.57;7.25;;;3.50;99.90;;;;;;5029260;28;20025;-41
2023/03/03 03:01:45;;;;;;;11.27;5.95;;;3.70;99.90;;;;;;5031755;28;20091;-41
2023/03/03 03:04:14;;;;;;;13.30;6.38;;;3.70;99.90;;;;;;5029814;28;20041;-40
2023/03/03 03:06:40;;;;;;;16.83;7.30;;;3.70;99.90;;;;;;5029581;28;20108;-40
2023/03/03 03:09:08;;;;;;;14.82;6.40;;;3.70;99.90;;;;;;5029791;28;20026;-40
2023/03/03 03:11:34;;;;;;;10.70;5.65;;;3.70;99.90;;;;;;5029471;28;20485;-40
2023/03/03 03:14:05;;;;;;;12.35;6.18;;;3.70;99.90;;;;;;5030943;28;20079;-44
2023/03/03 03:16:31;;;;;;;13.85;5.75;;;3.70;99.90;;;;;;5018092;28;20026;-49
2023/03/03 03:18:58;;;;;;;10.90;6.10;;;3.70;99.90;;;;;;5031423;28;20038;-47
2023/03/03 03:21:24;;;;;;;14.43;6.20;;;3.70;99.90;;;;;;5031258;28;20032;-44
2023/03/03 03:23:50;;;;;;;14.00;6.43;;;3.60;99.90;;;;;;5030576;28;20397;-46
2023/03/03 03:26:16;;;;;;;15.65;6.20;;;3.70;99.90;;;;;;5031159;28;20037;-48
2023/03/03 03:28:41;;;;;;;16.23;6.05;;;3.70;99.90;;;;;;5030715;28;20037;-44
2023/03/03 03:31:09;;;;;;;13.73;6.25;;;3.60;99.90;;;;;;5031030;28;20030;-46
2023/03/03 03:33:35;;;;;;;11.60;6.07;;;3.60;99.90;;;;;;5017619;28;20037;-49
2023/03/03 03:36:02;;;;;;;12.95;6.38;;;3.50;99.90;;;;;;5030286;28;20374;-48
2023/03/03 03:38:28;;;;;;;14.85;6.18;;;3.50;99.90;;;;;;5030121;28;20029;-45
2023/03/03 03:40:54;;;;;;;13.27;6.45;;;3.40;99.90;;;;;;5030801;28;20385;-46
2023/03/03 03:43:20;;;;;;;13.23;6.25;;;3.40;99.90;;;;;;5030833;28;20030;-49
2023/03/03 03:45:46;;;;;;;13.55;6.88;;;3.30;99.90;;;;;;5030875;28;20044;-41
2023/03/03 03:48:12;;;;;;;18.38;7.55;;;3.30;99.90;;;;;;5030791;28;20033;-44
2023/03/03 03:50:38;;;;;;;19.52;7.60;;;3.30;99.90;;;;;;5030991;28;20018;-41
2023/03/03 03:53:05;;;;;;;12.65;7.13;;;3.40;99.90;;;;;;5029138;28;20538;-43
2023/03/03 03:55:31;;;;;;;16.00;7.47;;;3.30;99.90;;;;;;5030327;28;20014;-41
2023/03/03 03:57:57;;;;;;;17.58;8.32;;;3.30;99.90;;;;;;5030663;28;20041;-40
2023/03/03 04:00:23;;;;;;;17.15;8.02;;;3.30;99.90;;;;;;5030704;28;20044;-44
2023/03/03 04:02:49;;;;;;;14.90;7.80;;;3.30;99.90;;;;;;5030590;28;20501;-43
2023/03/03 04:05:15;;;;;;;16.13;7.93;;;3.30;99.90;;;;;;5030647;28;20064;-43
2023/03/03 04:07:59;;;;;;;16.13;8.27;;;3.20;99.90;;;;;;5172064;22;20266;-40
2023/03/03 04:10:24;;;;;;;17.23;8.15;;;3.30;99.90;;;;;;5055664;22;20060;-42
2023/03/03 04:12:50;;;;;;;17.17;8.73;;;3.20;99.90;;;;;;5048792;28;20025;-52
2023/03/03 04:15:16;;;;;;;15.13;7.70;;;3.20;99.90;;;;;;5049489;28;20186;-39
2023/03/03 04:17:41;;;;;;;16.67;8.30;;;3.20;99.90;;;;;;5050383;28;20481;-46
2023/03/03 04:20:10;;;;;;;16.92;8.40;;;3.20;99.90;;;;;;5050155;28;20550;-41
2023/03/03 04:22:35;;;;;;;17.48;8.98;;;3.20;99.90;;;;;;5050223;28;20104;-43
2023/03/03 04:25:03;;;;;;;18.00;8.13;;;3.20;99.90;;;;;;5049772;28;20164;-43
2023/03/03 04:27:31;;;;;;;16.33;8.80;;;3.20;99.90;;;;;;5048452;28;20032;-38
2023/03/03 04:29:56;;;;;;;16.55;8.52;;;3.20;99.90;;;;;;5049353;28;20025;-42
2023/03/03 04:32:22;;;;;;;18.77;7.97;;;3.20;99.90;;;;;;5050364;28;20040;-45
2023/03/03 04:34:47;;;;;;;16.98;8.30;;;3.20;99.90;;;;;;5050314;28;20037;-46
2023/03/03 04:37:13;;;;;;;19.45;7.90;;;3.20;99.90;;;;;;5050079;28;20033;-43
2023/03/03 04:39:39;;;;;;;15.73;7.63;;;3.20;99.90;;;;;;5050702;28;20025;-47
2023/03/03 04:42:04;;;;;;;17.50;8.48;;;3.20;99.90;;;;;;5050213;28;20048;-42
2023/03/03 04:44:30;;;;;;;19.35;7.90;;;3.20;99.90;;;;;;5049664;28;20139;-38
2023/03/03 04:46:55;;;;;;;14.77;7.38;;;3.20;99.90;;;;;;5052138;28;20021;-43
2023/03/03 04:49:21;;;;;;;17.20;8.05;;;3.20;99.90;;;;;;5053852;28;20033;-41
2023/03/03 04:51:47;;;;;;;13.57;7.90;;;3.20;99.90;;;;;;5054286;28;20027;-42
2023/03/03 04:54:12;;;;;;;14.00;7.05;;;3.20;99.90;;;;;;5053419;28;20104;-47
2023/03/03 04:56:38;;;;;;;17.52;7.00;;;3.20;99.90;;;;;;5054192;28;20024;-51
2023/03/03 04:59:03;;;;;;;18.70;7.60;;;3.20;99.90;;;;;;5054078;28;20113;-51
2023/03/03 05:01:29;;;;;;;18.70;8.38;;;3.10;99.90;;;;;;5053813;28;20078;-46
2023/03/03 05:03:54;;;;;;;13.93;7.43;;;3.20;99.90;;;;;;5054058;28;20025;-44
2023/03/03 05:06:20;;;;;;;15.65;7.97;;;3.10;99.90;;;;;;5045358;28;20018;-51
2023/03/03 05:08:46;;;;;;;14.82;8.02;;;3.10;99.90;;;;;;5039750;28;20029;-42
2023/03/03 05:11:12;;;;;;;15.15;7.53;;;3.10;99.90;;;;;;5053829;28;20037;-51
2023/03/03 05:13:38;;;;;;;13.00;6.80;;;3.10;99.90;;;;;;5053844;28;20116;-52
2023/03/03 05:16:04;;;;;;;16.77;8.20;;;3.10;99.90;;;;;;5053803;28;20092;-51
2023/03/03 05:18:30;;;;;;;12.40;6.55;;;3.20;99.90;;;;;;5053445;28;20090;-48
2023/03/03 05:20:56;;;;;;;13.55;6.45;;;3.10;99.90;;;;;;5053197;28;20033;-40
2023/03/03 05:23:22;;;;;;;15.43;7.70;;;3.10;99.90;;;;;;5053692;28;20107;-41
2023/03/03 05:25:48;;;;;;;15.45;7.18;;;3.10;99.90;;;;;;5053227;28;20017;-39
2023/03/03 05:28:13;;;;;;;15.40;7.57;;;3.20;99.90;;;;;;5053699;28;20167;-43
2023/03/03 05:30:39;;;;;;;14.27;6.93;;;3.30;99.90;;;;;;5053390;28;20067;-46
2023/03/03 05:33:06;;;;;;;18.02;7.07;;;3.20;99.90;;;;;;5053487;28;20028;-42
2023/03/03 05:35:31;;;;;;;11.48;6.15;;;3.30;99.90;;;;;;5052824;28;20029;-38
2023/03/03 05:37:57;;;;;;;12.57;6.25;;;3.20;99.90;;;;;;5040576;28;20039;-47
2023/03/03 05:40:27;;;;;;;14.30;6.63;;;3.20;99.90;;;;;;5053350;28;20476;-43
2023/03/03 05:42:53;;;;;;;13.82;7.28;;;3.20;99.90;;;;;;5053099;28;20025;-49
2023/03/03 05:45:20;;;;;;;13.65;7.60;;;3.20;99.90;;;;;;5053077;28;20025;-52
2023/03/03 05:47:47;;;;;;;13.13;6.30;;;3.20;99.90;;;;;;5052901;28;20047;-47
2023/03/03 05:50:13;;;;;;;14.10;6.32;;;3.20;99.90;;;;;;5052217;28;20127;-51
2023/03/03 05:52:39;;;;;;;29.30;8.02;;;3.20;99.90;;;;;;5051572;28;20029;-45
2023/03/03 05:55:05;;;;;;;11.32;6.95;;;3.10;99.90;;;;;;5051560;28;20028;-42
2023/03/03 05:57:30;;;;;;;17.23;6.70;;;3.10;99.90;;;;;;5050446;28;20068;-39
2023/03/03 05:59:56;;;;;;;11.38;6.60;;;3.00;99.90;;;;;;5051387;28;20057;-49
2023/03/03 06:02:22;;;;;;;13.05;6.45;;;2.90;99.90;;;;;;5052741;28;20120;-44
2023/03/03 06:04:47;;;;;;;13.77;6.53;;;2.90;99.90;;;;;;5052222;28;20040;-47
2023/03/03 06:07:13;;;;;;;13.85;7.07;;;3.00;99.90;;;;;;5046284;28;20055;-49
2023/03/03 06:09:39;;;;;;;11.90;6.13;;;3.00;99.90;;;;;;5052277;28;20048;-48
2023/03/03 06:12:04;;;;;;;12.77;6.18;;;3.00;99.90;;;;;;5052691;28;20379;-51
2023/03/03 06:14:30;;;;;;;12.45;6.40;;;3.00;99.90;;;;;;5052313;28;20089;-45
2023/03/03 06:16:56;;;;;;;11.88;6.18;;;3.00;99.90;;;;;;5052727;28;20036;-39
2023/03/03 06:19:22;;;;;;;12.10;6.18;;;3.10;99.90;;;;;;5052034;28;20044;-42
2023/03/03 06:21:48;;;;;;;13.82;6.20;;;3.10;99.90;;;;;;5052403;28;20017;-38
2023/03/03 06:24:13;;;;;;;13.75;6.28;;;3.20;99.90;;;;;;5052495;28;20383;-41
2023/03/03 06:26:39;;;;;;;14.13;6.97;;;3.20;99.90;;;;;;5052750;28;20202;-42
2023/03/03 06:29:05;;;;;;;10.88;6.15;;;3.20;99.90;;;;;;5052383;28;20024;-49
2023/03/03 06:31:30;;;;;;;13.00;6.07;;;3.20;99.90;;;;;;5052474;28;20040;-48
2023/03/03 06:33:56;;;;;;;13.00;6.18;;;3.20;99.90;;;;;;5052479;28;20487;-41
2023/03/03 06:36:22;;;;;;;12.60;6.45;;;3.10;99.90;;;;;;5046095;28;20014;-50
2023/03/03 06:38:48;;;;;;;13.65;5.85;;;3.10;99.90;;;;;;5051910;28;20526;-45
2023/03/03 06:41:13;;;;;;;10.32;5.70;;;3.20;99.90;;;;;;5051906;28;20053;-44
2023/03/03 06:43:39;;;;;;;13.32;5.45;;;3.20;99.90;;;;;;5050924;28;20032;-42
2023/03/03 06:46:05;;;;;;;14.40;5.75;;;3.20;99.90;;;;;;5051196;28;20414;-44
2023/03/03 06:48:32;;;;;;;11.43;5.72;;;3.30;99.90;;;;;;5051207;28;20029;-41
2023/03/03 06:51:04;;;;;;;11.25;5.90;;;3.20;99.90;;;;;;5051889;28;20031;-43
2023/03/03 06:53:31;;;;;;;14.40;5.50;;;3.30;99.90;;;;;;5051760;28;20664;-39
2023/03/03 06:55:57;;;;;;;9.88;5.43;;;3.30;99.90;;;;;;5051790;28;20036;-48
2023/03/03 06:58:28;;;;;;;12.52;5.95;;;3.40;99.90;;;;;;5051610;28;20124;-44
2023/03/03 07:00:58;;;;;;;9.00;4.78;;;3.40;99.90;;;;;;5051676;28;20029;-40
2023/03/03 07:03:32;;;;;;;10.15;5.15;;;3.50;99.90;;;;;;5050371;28;20032;-49
2023/03/03 07:05:58;;;;;;;10.27;5.13;;;3.50;99.90;;;;;;5046840;28;20021;-50
2023/03/03 07:08:25;;;;;;;10.30;5.10;;;3.60;99.90;;;;;;5050227;28;20337;-46
2023/03/03 07:10:52;;;;;;;13.65;4.80;;;3.60;99.90;;;;;;5051554;28;20076;-41
2023/03/03 07:13:24;;;;;;;11.40;5.57;;;3.70;99.90;;;;;;5051136;28;20025;-44
2023/03/03 07:15:52;;;;;;;10.73;5.03;;;3.70;99.90;;;;;;5051625;28;20033;-48
2023/03/03 07:18:57;;;;;;;10.65;4.32;;;3.80;99.90;;;;;;5051231;28;20073;-40
2023/03/03 07:21:41;;;;;;;10.70;4.63;;;3.90;99.90;;;;;;5043158;28;20045;-44
2023/03/03 07:24:28;;;;;;;12.10;4.65;;;3.90;99.90;;;;;;5050160;28;20029;-43
2023/03/03 07:27:11;;;;;;;10.18;4.57;;;4.00;99.90;;;;;;5050404;28;20482;-45
2023/03/03 07:29:40;;;;;;;10.38;4.30;;;4.00;99.90;;;;;;5051084;28;20029;-40
2023/03/03 07:32:28;;;;;;;6.82;3.83;;;4.10;99.90;;;;;;5050254;28;20025;-49
2023/03/03 07:34:55;;;;;;;7.75;3.97;;;4.30;99.90;;;;;;5051344;28;20104;-45
2023/03/03 07:37:37;;;;;;;12.35;4.35;;;4.40;99.90;;;;;;5049400;28;20059;-40
2023/03/03 07:40:36;;;;;;;11.85;4.43;;;4.40;99.90;;;;;;5050391;28;20035;-41
2023/03/03 07:43:33;;;;;;;10.23;4.28;;;4.50;99.90;;;;;;5041857;28;20021;-49
2023/03/03 07:46:10;;;;;;;8.75;3.85;;;4.60;99.90;;;;;;5050679;28;20029;-51
2023/03/03 07:48:39;;;;;;;8.60;4.20;;;4.70;99.90;;;;;;5050243;28;20025;-47
2023/03/03 07:51:27;;;;;;;11.23;3.93;;;4.80;99.90;;;;;;5041192;28;20567;-52
2023/03/03 07:54:27;;;;;;;8.50;3.85;;;4.80;99.90;;;;;;5036153;28;20021;-42
2023/03/03 07:57:05;;;;;;;7.38;3.92;;;4.90;99.90;;;;;;5045716;28;20025;-40
2023/03/03 07:59:35;;;;;;;7.63;3.67;;;4.90;99.90;;;;;;5039013;28;20064;-41
2023/03/03 08:02:00;;;;;;;;;;;4.90;99.90;;;;;;5032140;28;20136;-42
2023/03/03 08:04:43;;;;;;;8.05;4.20;;;5.00;99.90;;;;;;5033619;28;20374;-46
2023/03/03 08:07:16;;;;;;;5.93;3.53;;;5.10;99.90;;;;;;5041712;28;20092;-40
2023/03/03 08:09:47;;;;;;;8.10;4.03;;;5.00;99.90;;;;;;5033573;28;20045;-49
2023/03/03 08:12:18;;;;;;;7.30;3.45;;;5.10;99.90;;;;;;5030947;28;20034;-46
2023/03/03 08:14:44;;;;;;;8.52;3.45;;;5.20;99.90;;;;;;5034783;28;20053;-49
2023/03/03 08:17:25;;;;;;;11.43;4.05;;;5.20;99.90;;;;;;5047700;28;20013;-47
2023/03/03 08:19:52;;;;;;;8.05;3.58;;;5.30;99.90;;;;;;5038512;28;20042;-46
2023/03/03 08:22:29;;;;;;;7.53;3.40;;;5.30;99.90;;;;;;5037132;28;20104;-50
2023/03/03 08:24:54;;;;;;;8.35;3.35;;;5.30;99.90;;;;;;5034745;28;20017;-52
2023/03/03 08:27:20;;;;;;;7.35;3.30;;;5.30;99.90;;;;;;5039735;28;20082;-41
2023/03/03 08:29:46;;;;;;;7.18;2.90;;;5.30;99.90;;;;;;5039040;28;20754;-40
2023/03/03 08:32:11;;;;;;;5.75;3.53;;;5.40;99.90;;;;;;5040969;28;20067;-47
2023/03/03 08:34:37;;;;;;;11.40;3.58;;;5.40;99.90;;;;;;5050451;28;20057;-45
2023/03/03 08:37:03;;;;;;;7.82;3.40;;;5.50;99.90;;;;;;5043514;28;20104;-51
2023/03/03 08:39:28;;;;;;;6.97;3.10;;;5.50;99.90;;;;;;5046080;28;20047;-46
2023/03/03 08:41:54;;;;;;;6.18;3.28;;;5.50;99.90;;;;;;5044797;28;20024;-54
2023/03/03 08:44:19;;;;;;;7.45;3.63;;;5.50;99.90;;;;;;5045880;28;20512;-46
2023/03/03 08:46:45;;;;;;;8.00;3.22;;;5.60;99.90;;;;;;5047270;28;20091;-47
2023/03/03 08:49:12;;;;;;;11.82;3.45;;;5.80;99.90;;;;;;5048084;28;20037;-42
2023/03/03 08:51:37;;;;;;;8.48;3.58;;;5.80;99.90;;;;;;5048512;28;20102;-47
2023/03/03 08:54:03;;;;;;;6.65;2.72;;;5.80;99.90;;;;;;5049856;28;20060;-50
2023/03/03 08:56:29;;;;;;;9.82;3.50;;;5.90;99.90;;;;;;5048594;28;20096;-45
2023/03/03 08:58:54;;;;;;;7.22;3.42;;;5.90;99.90;;;;;;5044642;28;20399;-51
2023/03/03 09:01:20;;;;;;;8.25;3.20;;;6.10;99.90;;;;;;5049396;28;20278;-44
2023/03/03 09:03:45;;;;;;;6.95;3.70;;;6.20;99.90;;;;;;5044820;28;20094;-45
2023/03/03 09:06:11;;;;;;;8.70;3.88;;;6.20;99.90;;;;;;5052205;28;20143;-45
2023/03/03 09:08:37;;;;;;;7.03;3.47;;;6.30;99.90;;;;;;5047576;28;20040;-46
2023/03/03 09:11:12;;;;;;;9.75;3.80;;;6.40;99.90;;;;;;5036029;28;20120;-44
2023/03/03 09:13:38;;;;;;;9.93;4.00;;;6.50;99.90;;;;;;5030920;28;20079;-46
2023/03/03 09:16:14;;;;;;;6.95;3.63;;;6.80;99.90;;;;;;5037949;28;20025;-41
2023/03/03 09:18:41;;;;;;;9.18;3.33;;;7.10;99.90;;;;;;5044789;28;20037;-40
2023/03/03 09:21:21;;;;;;;16.33;5.00;;;7.60;99.90;;;;;;5044972;28;20017;-41
2023/03/03 09:23:54;;;;;;;8.85;3.97;;;7.70;99.90;;;;;;5047957;28;20027;-41
2023/03/03 09:26:29;;;;;;;7.45;3.83;;;7.90;99.90;;;;;;5049630;28;20037;-41
2023/03/03 09:29:15;;;;;;;7.88;3.42;;;8.70;99.90;;;;;;5049498;28;20507;-41
2023/03/03 09:31:48;;;;;;;11.80;3.60;;;9.30;99.90;;;;;;5048926;28;20141;-44
2023/03/03 09:34:24;;;;;;;8.27;3.17;;;9.70;99.50;;;;;;5050121;28;20032;-40
2023/03/03 09:36:52;;;;;;;7.65;3.55;;;9.90;98.20;;;;;;5053573;28;20031;-45
2023/03/03 09:39:24;;;;;;;10.77;3.35;;;9.80;98.00;;;;;;5053116;28;20033;-46
2023/03/03 09:42:01;;;;;;;10.27;3.78;;;10.10;96.90;;;;;;5052094;28;20498;-40
2023/03/03 09:44:57;;;;;;;6.25;2.95;;;10.30;95.40;;;;;;5053498;28;20130;-42
2023/03/03 09:47:41;;;;;;;7.72;3.53;;;10.10;94.90;;;;;;5053336;28;20167;-38
2023/03/03 09:50:58;;;;;;;5.53;3.22;;;10.40;96.20;;;;;;5053159;28;20028;-43
2023/03/03 09:53:46;;;;;;;7.53;3.42;;;11.40;94.70;;;;;;5024140;28;20584;-42
2023/03/03 09:56:23;;;;;;;9.05;2.92;;;11.40;92.30;;;;;;5052967;28;20029;-43
2023/03/03 09:59:19;;;;;;;10.32;3.88;;;11.50;92.10;;;;;;5052806;28;20048;-43
2023/03/03 10:01:59;;;;;;;9.98;3.58;;;11.20;91.10;;;;;;5051724;28;20060;-47
2023/03/03 10:04:59;;;;;;;8.63;4.40;;;10.70;91.10;;;;;;5043517;28;20056;-46
2023/03/03 10:07:46;;;;;;;6.30;2.92;;;10.80;91.60;;;;;;5052712;28;20491;-41
2023/03/03 10:10:28;;;;;;;6.72;3.17;;;10.30;91.10;;;;;;5052445;28;20637;-40
2023/03/03 10:13:04;;;;;;;6.45;2.80;;;10.50;91.30;;;;;;5053040;28;20029;-46
2023/03/03 10:15:56;;;;;;;6.55;2.83;;;11.60;90.50;;;;;;5052637;28;20021;-49
2023/03/03 10:18:33;;;;;;;7.38;2.60;;;12.10;85.90;;;;;;5030961;28;20046;-39
2023/03/03 10:21:16;;;;;;;9.98;3.00;;;13.30;84.80;;;;;;5052704;28;20032;-41
2023/03/03 10:23:53;;;;;;;4.75;2.38;;;13.50;80.20;;;;;;5043767;28;20033;-41
2023/03/03 10:26:40;;;;;;;6.82;2.80;;;13.00;78.00;;;;;;5052258;28;20550;-38
2023/03/03 10:29:25;;;;;;;6.50;3.33;;;13.30;79.40;;;;;;5052441;28;20082;-40
2023/03/03 10:32:21;;;;;;;7.40;3.38;;;12.80;78.80;;;;;;5052653;28;20021;-40
2023/03/03 10:35:05;;;;;;;6.97;3.00;;;11.90;79.50;;;;;;5052539;28;20035;-41
2023/03/03 10:37:46;;;;;;;8.55;3.88;;;11.50;82.50;;;;;;5052121;28;20029;-41
2023/03/03 10:40:36;;;;;;;8.60;3.47;;;10.80;84.50;;;;;;5051809;28;20558;-42
2023/03/03 10:43:17;;;;;;;9.80;3.97;;;10.30;86.80;;;;;;5052054;28;20074;-50
2023/03/03 10:45:54;;;;;;;7.40;3.90;;;10.30;87.90;;;;;;5048273;28;20032;-39
2023/03/03 10:48:31;;;;;;;7.10;3.10;;;10.40;88.90;;;;;;5044877;28;20539;-44
2023/03/03 10:51:22;;;;;;;7.00;2.85;;;10.50;89.60;;;;;;5037986;28;20044;-47
2023/03/03 10:53:58;;;;;;;5.97;2.95;;;10.60;89.90;;;;;;5046152;28;20036;-40
2023/03/03 10:56:48;;;;;;;9.05;3.50;;;10.10;89.20;;;;;;5051485;28;20067;-39
2023/03/03 10:59:30;;;;;;;6.55;2.60;;;9.80;90.50;;;;;;5051541;28;20514;-42
2023/03/03 11:02:00;;;;;;;13.73;3.13;;;9.60;91.90;;;;;;5045323;28;20028;-42
2023/03/03 11:05:20;;;;;;;6.13;3.03;;;9.50;92.20;;;;;;5056893;28;20032;-41
2023/03/03 11:07:50;;;;;;;6.85;3.10;;;9.70;93.50;;;;;;5011095;28;20053;-38
2023/03/03 11:10:46;;;;;;;5.88;2.55;;;9.90;91.50;;;;;;5010206;28;20056;-48
2023/03/03 11:13:12;;;;;;;5.28;2.05;;;11.00;90.60;;;;;;5031428;28;20052;-42
2023/03/03 11:15:48;;;;;;;7.45;2.28;;;11.70;90.30;;;;;;5040957;28;20041;-41
2023/03/03 11:18:17;;;;;;;8.68;2.58;;;12.20;86.30;;;;;;5049745;28;20045;-51
2023/03/03 11:21:06;;;;;;;6.97;2.67;;;12.20;85.30;;;;;;5033872;28;20036;-44
2023/03/03 11:23:43;;;;;;;7.90;2.70;;;11.90;86.10;;;;;;5035301;28;20273;-46
2023/03/03 11:26:31;;;;;;;7.97;3.13;;;11.20;86.70;;;;;;5034067;28;20103;-43
2023/03/03 11:29:23;;;;;;;5.80;2.45;;;10.60;88.90;;;;;;5032134;28;20084;-45
2023/03/03 11:31:56;;;;;;;4.85;2.88;;;10.70;88.60;;;;;;5052112;28;20091;-48
2023/03/03 11:34:46;;;;;;;9.07;3.38;;;11.00;89.00;;;;;;5049699;28;20584;-49
2023/03/03 11:37:36;;;;;;;7.18;2.50;;;10.50;88.50;;;;;;5049361;28;20020;-53
2023/03/03 11:40:17;;;;;;;5.20;2.63;;;10.00;89.60;;;;;;5049444;28;20112;-47
2023/03/03 11:43:09;;;;;;;6.72;2.92;;;9.70;91.20;;;;;;5048746;28;20112;-42
2023/03/03 11:45:57;;;;;;;7.57;3.40;;;9.40;92.30;;;;;;5049361;28;20025;-43
2023/03/03 11:48:34;;;;;;;5.85;2.97;;;9.10;92.50;;;;;;5050524;28;20020;-41
2023/03/03 11:51:17;;;;;;;7.68;3.22;;;9.00;93.10;;;;;;5049506;28;20025;-40
2023/03/03 11:54:04;;;;;;;7.50;3.03;;;8.80;92.80;;;;;;5049974;28;20040;-44
2023/03/03 11:56:38;;;;;;;6.85;3.05;;;8.90;93.70;;;;;;5046890;28;20028;-41
2023/03/03 11:59:31;;;;;;;5.97;2.80;;;8.80;93.10;;;;;;5048292;28;20060;-41
2023/03/03 12:02:08;;;;;;;7.60;2.85;;;9.00;93.30;;;;;;5047382;28;20490;-41
2023/03/03 12:04:48;;;;;;;8.85;2.90;;;9.00;93.60;;;;;;5049147;28;20853;-51
2023/03/03 12:07:37;;;;;;;6.53;2.70;;;9.10;93.30;;;;;;5051064;28;20040;-46
2023/03/03 12:10:13;;;;;;;7.30;2.40;;;8.80;93.00;;;;;;5050561;28;20045;-44
2023/03/03 12:12:44;;;;;;;5.53;2.40;;;8.70;93.30;;;;;;5049207;28;20070;-44
2023/03/03 12:15:27;;;;;;;8.00;2.38;;;8.60;94.00;;;;;;5049513;28;20484;-43
2023/03/03 12:18:19;;;;;;;4.25;1.95;;;8.60;94.60;;;;;;5047103;28;20450;-42
2023/03/03 12:20:53;;;;;;;4.30;1.80;;;8.80;94.30;;;;;;5046201;28;20034;-42
2023/03/03 12:23:59;;;;;;;4.57;1.50;;;9.10;93.60;;;;;;5045660;28;20056;-41
2023/03/03 12:26:46;;;;;;;5.05;1.67;;;9.40;92.50;;;;;;5040069;28;20029;-49
2023/03/03 12:29:21;;;;;;;5.70;1.60;;;9.80;92.10;;;;;;5033176;28;20468;-49
2023/03/03 12:31:59;;;;;;;5.22;2.17;;;9.90;91.30;;;;;;5031226;28;20395;-42
2023/03/03 12:34:27;;;;;;;5.07;2.10;;;10.00;91.00;;;;;;5043616;28;20032;-48
2023/03/03 12:37:05;;;;;;;4.45;1.70;;;9.70;91.20;;;;;;5035714;28;20091;-49
2023/03/03 12:39:44;;;;;;;7.25;2.10;;;9.40;91.90;;;;;;5043633;28;20036;-47
2023/03/03 12:42:30;;;;;;;4.23;1.83;;;9.20;92.10;;;;;;5032480;28;20512;-54
2023/03/03 12:45:23;;;;;;;9.75;3.22;;;8.90;92.80;;;;;;5040748;28;20037;-50
2023/03/03 12:47:52;;;;;;;11.43;5.88;;;8.70;93.10;;;;;;5036965;28;20024;-46
2023/03/03 12:50:30;;;;;;;5.47;2.60;;;8.50;93.60;;;;;;5050305;28;20044;-40
2023/03/03 12:53:23;;;;;;;10.48;2.22;;;8.30;93.90;;;;;;5047854;28;20079;-39
2023/03/03 12:55:53;;;;;;;4.78;2.55;;;8.20;94.20;;;;;;5044023;28;20100;-40
2023/03/03 12:58:38;;;;;;;6.57;2.20;;;8.30;94.60;;;;;;5043627;28;20125;-40
2023/03/03 13:01:30;;;;;;;7.00;2.08;;;8.40;95.00;;;;;;5047033;28;20029;-39
2023/03/03 13:04:23;;;;;;;4.43;2.33;;;8.50;94.50;;;;;;5029359;28;20509;-41
2023/03/03 13:07:00;;;;;;;3.75;2.10;;;9.10;94.90;;;;;;5035502;28;20047;-39
2023/03/03 13:09:45;;;;;;;4.00;2.08;;;9.70;94.00;;;;;;5038847;28;20033;-40
2023/03/03 13:12:29;;;;;;;5.95;1.95;;;10.00;92.30;;;;;;5037421;28;20033;-44
2023/03/03 13:15:20;;;;;;;4.63;1.90;;;9.60;92.30;;;;;;5045662;28;20418;-39
2023/03/03 13:17:59;;;;;;;7.18;2.55;;;9.40;92.60;;;;;;5041782;28;20057;-39
2023/03/03 13:20:39;;;;;;;4.95;2.17;;;9.30;92.80;;;;;;5040460;28;20032;-43